Energy Champion — MJUZ7 — position and weather

sailwx.info

Track history (hours):
 
Tides and Currents Weather Stations Pressure Air Temp Water Temp Dewpoint Dewpoint Depression Visibility Wind Speed Wind Dir Waves Ship Positions

Energy Champion

Last reported at 2018-Feb-18 03:28 UTC. Time now 2018-Feb-18 03:32 UTC.
Position N 51°54' E 004°22'.

Length 228 m; draft 8 m.

Type: Tanker. MMSI: 235009420.

Date/timePositionNaut miles runAvg speedWind from/ knotsBaromVisibWave heightAir tempDewpointWater temp
2018-Feb-18 03:28N 51°54' E 004°22'0 0.0
2018-Feb-18 02:58N 51°54' E 004°22'0 0.0
2018-Feb-18 02:28N 51°54' E 004°22'0 0.0
2018-Feb-18 01:58N 51°54' E 004°22'0 0.0
2018-Feb-18 01:28N 51°54' E 004°22'0 0.0
2018-Feb-18 00:58N 51°54' E 004°22'0 0.0
2018-Feb-18 00:28N 51°54' E 004°22'0 0.0
2018-Feb-17 23:58N 51°54' E 004°22'0 0.0
2018-Feb-17 23:28N 51°54' E 004°22'0 0.0
2018-Feb-17 22:58N 51°54' E 004°22'0 0.0
2018-Feb-17 22:28N 51°54' E 004°22'0 0.0
2018-Feb-17 21:58N 51°54' E 004°22'0 0.0
2018-Feb-17 21:28N 51°54' E 004°22'0 0.0
2018-Feb-17 20:58N 51°54' E 004°22'0 0.0
2018-Feb-17 20:28N 51°54' E 004°22'0 0.0
2018-Feb-17 19:58N 51°54' E 004°22'0 0.0
2018-Feb-17 19:28N 51°54' E 004°22'0 0.0
2018-Feb-17 18:58N 51°54' E 004°22'0 0.0
2018-Feb-17 18:28N 51°54' E 004°22'0 0.0
2018-Feb-17 17:58N 51°54' E 004°22'0 0.0
2018-Feb-17 17:28N 51°54' E 004°22'0 0.0
2018-Feb-17 16:58N 51°54' E 004°22'0 0.0
2018-Feb-17 16:28N 51°54' E 004°22'0 0.0
2018-Feb-17 15:58N 51°54' E 004°22'0 0.0
2018-Feb-17 15:28N 51°54' E 004°22'0 0.0
2018-Feb-17 14:58N 51°54' E 004°22'0 0.0
2018-Feb-17 14:28N 51°54' E 004°22'0 0.0
2018-Feb-17 13:58N 51°54' E 004°22'0 1.0
2018-Feb-17 13:30N 51°54' E 004°21'3 6.4
2018-Feb-17 13:00N 51°54' E 004°16'4 8.5
2018-Feb-17 12:30N 51°57' E 004°11'4 8.2
2018-Feb-17 12:00N 51°59' E 004°05'4 8.9
2018-Feb-17 11:30N 51°60' E 003°58'1 2.5
2018-Feb-17 11:00N 52°00' E 003°56'4 7.1
2018-Feb-17 10:30N 51°60' E 004°02'5 9.9
2018-Feb-17 10:00N 51°57' E 004°09'2 2.9
2018-Feb-17 09:14N 51°56' E 004°12'0 0.0
2018-Feb-17 08:56N 51°56' E 004°12'0 0.0
2018-Feb-17 08:29N 51°56' E 004°12'0 0.0
2018-Feb-17 07:59N 51°56' E 004°12'0 0.0
2018-Feb-17 07:14N 51°56' E 004°12'0 0.0
2018-Feb-17 06:56N 51°56' E 004°12'0 0.0
2018-Feb-17 06:17N 51°56' E 004°12'0 0.0
2018-Feb-17 05:53N 51°56' E 004°12'0 0.0
2018-Feb-17 05:11N 51°56' E 004°12'0 0.0
2018-Feb-17 04:59N 51°56' E 004°12'0 0.0
2018-Feb-17 04:17N 51°56' E 004°12'0 0.0
2018-Feb-17 03:56N 51°56' E 004°12'0 0.0
2018-Feb-17 03:29N 51°56' E 004°12'0 0.0
2018-Feb-17 02:56N 51°56' E 004°12'0 0.0
2018-Feb-17 02:23N 51°56' E 004°12'0 0.0
2018-Feb-17 01:53N 51°56' E 004°12'0 0.0
2018-Feb-17 01:26N 51°56' E 004°12'0 0.0
2018-Feb-17 00:59N 51°56' E 004°12'0 0.0
2018-Feb-17 00:26N 51°56' E 004°12'0 0.0
2018-Feb-16 23:59N 51°56' E 004°12'0 0.0
2018-Feb-16 23:29N 51°56' E 004°12'0 0.0
2018-Feb-16 22:47N 51°56' E 004°12'0 0.0
2018-Feb-16 22:29N 51°56' E 004°12'0 0.0
2018-Feb-16 21:56N 51°56' E 004°12'0 0.0
2018-Feb-16 21:26N 51°56' E 004°12'0 0.0
2018-Feb-16 20:56N 51°56' E 004°12'0 0.0
2018-Feb-16 20:26N 51°56' E 004°12'0 0.0
2018-Feb-16 19:59N 51°56' E 004°12'0 0.0
2018-Feb-16 19:29N 51°56' E 004°12'0 0.0
2018-Feb-16 18:59N 51°56' E 004°12'0 0.0
2018-Feb-16 18:29N 51°56' E 004°12'0 0.0
2018-Feb-16 17:59N 51°56' E 004°12'0 0.0
2018-Feb-16 17:23N 51°56' E 004°12'0 0.0
2018-Feb-16 16:56N 51°56' E 004°12'0 0.0
2018-Feb-16 16:20N 51°56' E 004°12'0 0.0
2018-Feb-16 15:59N 51°56' E 004°12'0 0.0
2018-Feb-16 15:23N 51°56' E 004°12'0 0.0
2018-Feb-16 14:59N 51°56' E 004°12'0 0.0
2018-Feb-16 14:29N 51°56' E 004°12'0 0.0
2018-Feb-16 13:50N 51°56' E 004°12'0 0.0
2018-Feb-16 13:29N 51°56' E 004°12'0 0.0
2018-Feb-16 12:59N 51°56' E 004°12'0 0.0
2018-Feb-16 12:26N 51°56' E 004°12'0 0.0
2018-Feb-16 11:56N 51°56' E 004°12'0 0.0
2018-Feb-16 11:26N 51°56' E 004°12'0 0.0
2018-Feb-16 10:38N 51°56' E 004°12'0 0.0
2018-Feb-16 10:29N 51°56' E 004°12'0 0.0
2018-Feb-16 09:59N 51°56' E 004°12'0 0.0
2018-Feb-16 09:26N 51°56' E 004°12'0 0.0
2018-Feb-16 08:59N 51°56' E 004°12'0 0.0
2018-Feb-16 08:29N 51°56' E 004°12'0 0.0
2018-Feb-16 07:53N 51°56' E 004°12'0 0.0
2018-Feb-16 07:26N 51°56' E 004°12'0 0.0
2018-Feb-16 06:59N 51°56' E 004°12'0 0.0
2018-Feb-16 06:29N 51°56' E 004°12'0 0.0
2018-Feb-16 05:56N 51°56' E 004°12'0 0.0
2018-Feb-16 05:26N 51°56' E 004°12'0 0.0
2018-Feb-16 04:47N 51°56' E 004°12'0 0.0
2018-Feb-16 04:29N 51°56' E 004°12'0 0.0
2018-Feb-16 03:59N 51°56' E 004°12'0 0.0
2018-Feb-16 03:26N 51°56' E 004°12'0 0.0
2018-Feb-16 02:56N 51°56' E 004°12'0 0.0
2018-Feb-16 02:26N 51°56' E 004°12'0 0.0
2018-Feb-16 01:59N 51°56' E 004°12'0 0.0
2018-Feb-16 01:29N 51°56' E 004°12'0 0.0
2018-Feb-16 00:59N 51°56' E 004°12'0 0.0
2018-Feb-16 00:26N 51°56' E 004°12'0 0.0
2018-Feb-15 23:50N 51°56' E 004°12'0 0.0
2018-Feb-15 23:26N 51°56' E 004°12'0 0.0
2018-Feb-15 22:53N 51°56' E 004°12'0 0.0
2018-Feb-15 22:29N 51°56' E 004°12'0 0.0
2018-Feb-15 21:56N 51°56' E 004°12'0 0.0
2018-Feb-15 21:29N 51°56' E 004°12'0 0.0
2018-Feb-15 20:47N 51°56' E 004°12'0 0.0
2018-Feb-15 20:29N 51°56' E 004°12'0 0.0
2018-Feb-15 19:56N 51°56' E 004°12'0 0.0
2018-Feb-15 19:29N 51°56' E 004°12'0 0.0
2018-Feb-15 18:53N 51°56' E 004°12'0 0.0
2018-Feb-15 18:29N 51°56' E 004°12'0 0.0
2018-Feb-15 17:59N 51°56' E 004°12'0 0.0
2018-Feb-15 17:29N 51°56' E 004°12'0 0.0
2018-Feb-15 16:59N 51°56' E 004°12'0 0.0
2018-Feb-15 16:23N 51°56' E 004°12'0 0.0
2018-Feb-15 15:59N 51°56' E 004°12'0 0.0
2018-Feb-15 15:20N 51°56' E 004°12'0 0.0
2018-Feb-15 14:59N 51°56' E 004°12'0 0.0
2018-Feb-15 14:29N 51°56' E 004°12'0 0.0
2018-Feb-15 13:50N 51°56' E 004°12'0 0.0
2018-Feb-15 13:20N 51°56' E 004°12'0 0.0
2018-Feb-15 12:59N 51°56' E 004°12'0 0.0
2018-Feb-15 12:29N 51°56' E 004°12'0 0.0
2018-Feb-15 11:59N 51°56' E 004°12'0 0.0
2018-Feb-15 11:29N 51°56' E 004°12'0 0.0
2018-Feb-15 10:53N 51°56' E 004°12'0 0.0
2018-Feb-15 10:23N 51°56' E 004°12'0 0.0
2018-Feb-15 09:50N 51°56' E 004°12'0 0.0
2018-Feb-15 09:23N 51°56' E 004°12'0 0.0
2018-Feb-15 08:59N 51°56' E 004°12'0 0.0
2018-Feb-15 08:26N 51°56' E 004°12'0 0.0
2018-Feb-15 07:56N 51°56' E 004°12'0 0.0
2018-Feb-15 07:23N 51°56' E 004°12'0 0.0
2018-Feb-15 06:56N 51°56' E 004°12'0 0.0
2018-Feb-15 06:17N 51°56' E 004°12'0 0.0
2018-Feb-15 05:59N 51°56' E 004°12'0 0.0
2018-Feb-15 05:30N 51°56' E 004°12'0 0.0
2018-Feb-15 05:00N 51°56' E 004°12'1 1.9
2018-Feb-15 04:31N 51°56' E 004°11'4 7.9
2018-Feb-15 04:01N 51°59' E 004°05'3 6.5
2018-Feb-15 03:30N 51°60' E 004°00'5 9.4
2018-Feb-15 03:01N 52°02' E 003°53'4 8.9
2018-Feb-15 02:31N 52°00' E 003°46'4 7.8
2018-Feb-15 02:01N 51°58' E 003°41'4 8.8
2018-Feb-15 01:31N 51°57' E 003°34'2 3.1
2018-Feb-15 00:56N 51°55' E 003°34'0 0.0
2018-Feb-15 00:20N 51°55' E 003°34'0 0.0
2018-Feb-14 21:29N 51°55' E 003°34'0 0.0
2018-Feb-14 20:47N 51°55' E 003°34'0 0.1
2018-Feb-14 20:26N 51°55' E 003°34'0 0.0
2018-Feb-14 18:35N 51°55' E 003°34'0 0.2
2018-Feb-14 18:20N 51°55' E 003°34'0 0.1
2018-Feb-14 17:23N 51°55' E 003°34'0 0.1
2018-Feb-14 17:00N 51°55' E 003°34'0 0.6
2018-Feb-14 16:27N 51°55' E 003°34'11 9.5
2018-Feb-14 15:18N 51°53' E 003°16'612.9
2018-Feb-14 14:50N 51°52' E 003°07'513.1
2018-Feb-14 14:29N 51°50' E 002°60'913.2
2018-Feb-14 13:47N 51°47' E 002°45'713.8
2018-Feb-14 13:15N 51°43' E 002°36'415.2
2018-Feb-14 13:00N 51°40' E 002°32'815.3
2018-Feb-14 12:30N 51°35' E 002°22'815.7
2018-Feb-14 12:01N 51°29' E 002°15'815.5
2018-Feb-14 11:30N 51°22' E 002°09'815.4
2018-Feb-14 11:00N 51°15' E 002°05'815.7
2018-Feb-14 10:31N 51°10' E 001°55'816.0
2018-Feb-14 10:01N 51°05' E 001°45'815.9
2018-Feb-14 09:31N 51°00' E 001°35'815.2
2018-Feb-14 09:01N 50°54' E 001°28'815.1
2018-Feb-14 08:30N 50°47' E 001°24'714.5
2018-Feb-14 08:00N 50°40' E 001°20'1913.5
2018-Feb-14 06:37N 50°29' E 000°56'413.4
2018-Feb-14 06:18N 50°28' E 000°50'913.5
2018-Feb-14 05:37N 50°25' E 000°36'213.4
2018-Feb-14 05:29N 50°25' E 000°33'613.2
2018-Feb-14 05:00N 50°23' E 000°24'712.7
2018-Feb-14 04:25N 50°21' E 000°12'512.4
2018-Feb-14 04:00N 50°20' E 000°04'612.4
2018-Feb-14 03:30N 50°18' W 000°05'612.1
2018-Feb-14 03:00N 50°16' W 000°14'3211.2
2018-Feb-14 00:10N 50°07' W 001°02'211.2
2018-Feb-14 00:00N 50°07' W 001°04'611.4
2018-Feb-13 23:31N 50°05' W 001°13'611.9
2018-Feb-13 23:00N 50°04' W 001°22'612.5
2018-Feb-13 22:30N 50°02' W 001°31'613.0
2018-Feb-13 22:01N 50°00' W 001°41'713.4
2018-Feb-13 21:30N 49°59' W 001°51'713.9
2018-Feb-13 21:00N 49°57' W 002°02'714.3
2018-Feb-13 20:30N 49°55' W 002°13'2214.3
2018-Feb-13 18:57N 49°50' W 002°46'914.0
2018-Feb-13 18:16N 49°47' W 003°00'413.8
2018-Feb-13 18:00N 49°46' W 003°06'813.7
2018-Feb-13 17:24N 49°45' W 003°18'913.3
2018-Feb-13 16:43N 49°45' W 003°32'313.2
2018-Feb-13 16:30N 49°46' W 003°36'713.6
2018-Feb-13 16:00N 49°46' W 003°47'1513.3
2018-Feb-13 14:54N 49°47' W 004°10'713.0
2018-Feb-13 14:20N 49°48' W 004°21'613.0
2018-Feb-13 13:53N 49°49' W 004°30'512.3
2018-Feb-13 13:30N 49°49' W 004°37'911.6
2018-Feb-13 12:42N 49°53' W 004°50'212.4
2018-Feb-13 12:30N 49°55' W 004°53'611.0
2018-Feb-13 11:57N 49°59' W 005°01'0 0.5
2018-Feb-13 11:23N 49°59' W 005°00'0 0.1
2018-Feb-13 10:59N 49°59' W 005°00'0 0.0
2018-Feb-13 10:29N 49°59' W 005°00'0 0.1
2018-Feb-13 09:59N 49°59' W 005°00'0 0.1
2018-Feb-13 09:29N 49°59' W 005°00'0 0.0
2018-Feb-13 08:47N 49°59' W 005°00'0 1.2
2018-Feb-13 08:28N 49°59' W 005°01'1 2.6
2018-Feb-13 08:00N 49°59' W 005°03'2 3.4
2018-Feb-13 07:30N 49°57' W 005°04'3 5.3
2018-Feb-13 07:01N 49°55' W 005°06'3 5.6
2018-Feb-13 06:31N 49°53' W 005°08'4 1.4
2018-Feb-13 03:42N 49°57' W 005°07'0 2.2
2018-Feb-13 03:30N 49°57' W 005°06'2 2.3
2018-Feb-13 02:47N 49°58' W 005°05'1 2.3
2018-Feb-13 02:30N 49°59' W 005°04'1 2.0
2018-Feb-13 01:59N 49°59' W 005°03'2 2.4
2018-Feb-13 01:13N 50°00' W 005°01'1 6.9
2018-Feb-13 01:00N 49°60' W 005°03'510.0
2018-Feb-13 00:30N 49°56' W 005°08'5 9.4
2018-Feb-12 23:57N 49°52' W 005°13'12 5.3
2018-Feb-12 21:46N 50°01' W 005°01'1 1.7
2018-Feb-12 21:25N 50°01' W 005°02'0 0.2
2018-Feb-12 20:31N 50°01' W 005°02'0 1.4
2018-Feb-12 20:28N 50°01' W 005°02'0 0.0
2018-Feb-12 19:43N 50°01' W 005°02'0 0.0
2018-Feb-12 19:19N 50°01' W 005°02'0 0.1
2018-Feb-12 18:58N 50°01' W 005°02'0 0.2
2018-Feb-12 18:28N 50°01' W 005°02'0 0.1
2018-Feb-12 17:49N 50°01' W 005°02'0 0.0
2018-Feb-12 16:43N 50°01' W 005°02'0 0.0
2018-Feb-12 12:10N 50°01' W 005°02'0 0.2
2018-Feb-12 11:31N 50°01' W 005°02'0 0.5
2018-Feb-12 11:25N 50°01' W 005°02'0 0.2
2018-Feb-12 10:49N 50°01' W 005°02'0 0.2
2018-Feb-12 10:28N 50°01' W 005°02'0 0.1
2018-Feb-12 09:40N 50°01' W 005°02'0 0.3
2018-Feb-12 09:19N 50°00' W 005°02'0 0.0
2018-Feb-12 08:04N 50°00' W 005°02'0 0.0
2018-Feb-12 07:55N 50°01' W 005°02'0 0.0
2018-Feb-12 07:25N 50°00' W 005°02'0 0.0
2018-Feb-12 06:40N 50°00' W 005°02'0 0.0
2018-Feb-12 06:13N 50°00' W 005°02'0 0.1
2018-Feb-12 05:52N 50°00' W 005°02'0 0.1
2018-Feb-12 05:25N 50°00' W 005°02'0 0.0
2018-Feb-12 04:55N 50°00' W 005°02'0 0.0
2018-Feb-12 04:28N 50°00' W 005°02'0 0.0
2018-Feb-12 03:49N 50°01' W 005°02'0 0.0
2018-Feb-12 03:19N 50°01' W 005°02'0 0.0
2018-Feb-12 02:58N 50°00' W 005°02'0 0.0
2018-Feb-12 02:13N 50°01' W 005°02'0 0.0
2018-Feb-12 01:58N 50°01' W 005°02'0 0.1
2018-Feb-12 01:28N 50°00' W 005°02'0 0.0
2018-Feb-12 00:58N 50°00' W 005°02'0 0.0
2018-Feb-12 00:22N 50°00' W 005°02'0 0.1
2018-Feb-11 23:58N 50°00' W 005°02'0 0.1
2018-Feb-11 23:19N 50°00' W 005°02'0 0.1
2018-Feb-11 22:52N 50°01' W 005°02'0 0.1
2018-Feb-11 22:28N 50°00' W 005°02'0 0.0
2018-Feb-11 21:55N 50°00' W 005°02'0 0.1
2018-Feb-11 21:28N 50°00' W 005°02'0 0.0
2018-Feb-11 20:49N 50°00' W 005°02'0 0.1
2018-Feb-11 20:19N 50°00' W 005°02'0 0.0
2018-Feb-11 19:58N 50°00' W 005°02'0 0.0
2018-Feb-11 19:22N 50°00' W 005°02'0 0.0
2018-Feb-11 18:43N 50°00' W 005°02'0 0.0
2018-Feb-11 18:28N 50°00' W 005°02'0 0.1
2018-Feb-11 17:58N 50°00' W 005°02'0 0.1
2018-Feb-11 17:19N 50°00' W 005°02'0 0.2
2018-Feb-11 16:58N 50°00' W 005°02'0 0.0
2018-Feb-11 15:04N 50°00' W 005°02'0 0.0
2018-Feb-11 14:16N 50°00' W 005°02'0 0.0
2018-Feb-11 13:40N 50°00' W 005°02'0 0.2
2018-Feb-11 13:25N 50°01' W 005°02'0 0.0
2018-Feb-11 10:58N 50°00' W 005°02'0 0.1
2018-Feb-11 10:25N 50°00' W 005°02'0 0.0
2018-Feb-11 09:22N 50°01' W 005°02'0 0.1
2018-Feb-11 08:52N 50°00' W 005°02'0 0.2
2018-Feb-11 08:22N 50°00' W 005°02'0 0.2
2018-Feb-11 07:55N 50°00' W 005°02'0 0.1
2018-Feb-11 07:19N 50°01' W 005°02'0 0.0
2018-Feb-11 06:37N 50°00' W 005°02'0 0.2
2018-Feb-11 06:25N 50°01' W 005°02'0 0.0
2018-Feb-11 05:58N 50°01' W 005°02'0 0.1
2018-Feb-11 05:19N 50°00' W 005°02'0 0.2
2018-Feb-11 04:46N 50°01' W 005°02'0 0.1
2018-Feb-11 04:28N 50°01' W 005°02'0 0.0
2018-Feb-11 03:55N 50°01' W 005°02'0 0.0
2018-Feb-11 03:19N 50°01' W 005°02'0 0.0
2018-Feb-11 02:58N 50°01' W 005°02'0 0.1
2018-Feb-11 02:22N 50°01' W 005°02'0 0.0
2018-Feb-11 01:43N 50°01' W 005°02'0 0.1
2018-Feb-11 01:28N 50°00' W 005°02'0 0.1
2018-Feb-11 00:40N 50°01' W 005°02'0 0.4
2018-Feb-11 00:28N 50°00' W 005°02'0 0.1
2018-Feb-10 23:55N 50°01' W 005°02'0 0.1
2018-Feb-10 23:25N 50°00' W 005°02'0 0.0
2018-Feb-10 22:52N 50°00' W 005°02'0 0.1
2018-Feb-10 22:13N 50°01' W 005°02'0 0.1
2018-Feb-10 21:28N 50°01' W 005°02'0 0.1
2018-Feb-10 20:49N 50°01' W 005°02'0 0.1
2018-Feb-10 20:25N 50°01' W 005°02'0 0.0
2018-Feb-10 19:46N 50°01' W 005°02'0 0.1
2018-Feb-10 19:25N 50°01' W 005°02'0 0.0
2018-Feb-10 18:43N 50°01' W 005°02'0 0.2
2018-Feb-10 18:25N 50°01' W 005°02'0 0.1
2018-Feb-10 17:49N 50°01' W 005°02'0 0.0
2018-Feb-10 17:25N 50°01' W 005°02'0 0.1
2018-Feb-10 16:52N 50°01' W 005°02'0 0.1
2018-Feb-10 16:28N 50°01' W 005°02'0 0.0
2018-Feb-10 15:04N 50°01' W 005°02'0 0.1
2018-Feb-10 14:46N 50°01' W 005°02'0 0.0
2018-Feb-10 14:25N 50°01' W 005°02'0 0.0
2018-Feb-10 13:49N 50°01' W 005°02'0 0.1
2018-Feb-10 13:28N 50°01' W 005°02'0 0.1
2018-Feb-10 12:52N 50°01' W 005°02'0 0.2
2018-Feb-10 12:28N 50°01' W 005°02'0 0.1
2018-Feb-10 11:55N 50°01' W 005°02'0 0.2
2018-Feb-10 11:25N 50°00' W 005°02'0 0.3
2018-Feb-10 10:58N 50°01' W 005°02'0 0.2
2018-Feb-10 10:28N 50°00' W 005°02'0 0.2
2018-Feb-10 09:58N 50°01' W 005°02'0 0.2
2018-Feb-10 09:28N 50°00' W 005°02'0 0.0
2018-Feb-10 08:46N 50°00' W 005°02'0 0.0
2018-Feb-10 08:25N 50°00' W 005°02'0 0.1
2018-Feb-10 07:49N 50°00' W 005°02'0 0.0
2018-Feb-10 07:25N 50°00' W 005°02'0 0.1
2018-Feb-10 06:49N 50°00' W 005°02'0 0.0
2018-Feb-10 06:25N 50°00' W 005°02'0 0.1
2018-Feb-10 05:55N 50°00' W 005°02'0 0.1
2018-Feb-10 05:25N 50°00' W 005°02'0 0.0
2018-Feb-10 04:58N 50°00' W 005°02'0 0.0
2018-Feb-10 04:28N 50°00' W 005°02'0 0.0
2018-Feb-10 03:58N 50°00' W 005°02'0 0.0
2018-Feb-10 03:13N 50°00' W 005°02'0 0.0
2018-Feb-10 02:49N 50°00' W 005°02'0 0.1
2018-Feb-10 02:19N 50°00' W 005°02'0 0.1
2018-Feb-10 01:55N 50°00' W 005°02'0 0.1
2018-Feb-10 01:28N 50°00' W 005°02'0 0.0
2018-Feb-09 23:55N 50°00' W 005°02'0 0.0
2018-Feb-09 23:19N 50°00' W 005°02'0 0.0
2018-Feb-09 21:49N 50°00' W 005°02'  
Track history (hours):
 
Tides and Currents Weather Stations Pressure Air Temp Water Temp Dewpoint Dewpoint Depression Visibility Wind Speed Wind Dir Waves Ship Positions

Energy Champion

Last reported at 2018-Feb-18 03:28 UTC. Time now 2018-Feb-18 03:32 UTC.
Position N 51°54' E 004°22'.

Length 228 m; draft 8 m.

Type: Tanker. MMSI: 235009420.

Date/timePositionNaut miles runAvg speedWind from/ knotsBaromVisibWave heightAir tempDewpointWater temp
2018-Feb-18 03:28N 51°54' E 004°22'0 0.0
2018-Feb-18 02:58N 51°54' E 004°22'0 0.0
2018-Feb-18 02:28N 51°54' E 004°22'0 0.0
2018-Feb-18 01:58N 51°54' E 004°22'0 0.0
2018-Feb-18 01:28N 51°54' E 004°22'0 0.0
2018-Feb-18 00:58N 51°54' E 004°22'0 0.0
2018-Feb-18 00:28N 51°54' E 004°22'0 0.0
2018-Feb-17 23:58N 51°54' E 004°22'0 0.0
2018-Feb-17 23:28N 51°54' E 004°22'0 0.0
2018-Feb-17 22:58N 51°54' E 004°22'0 0.0
2018-Feb-17 22:28N 51°54' E 004°22'0 0.0
2018-Feb-17 21:58N 51°54' E 004°22'0 0.0
2018-Feb-17 21:28N 51°54' E 004°22'0 0.0
2018-Feb-17 20:58N 51°54' E 004°22'0 0.0
2018-Feb-17 20:28N 51°54' E 004°22'0 0.0
2018-Feb-17 19:58N 51°54' E 004°22'0 0.0
2018-Feb-17 19:28N 51°54' E 004°22'0 0.0
2018-Feb-17 18:58N 51°54' E 004°22'0 0.0
2018-Feb-17 18:28N 51°54' E 004°22'0 0.0
2018-Feb-17 17:58N 51°54' E 004°22'0 0.0
2018-Feb-17 17:28N 51°54' E 004°22'0 0.0
2018-Feb-17 16:58N 51°54' E 004°22'0 0.0
2018-Feb-17 16:28N 51°54' E 004°22'0 0.0
2018-Feb-17 15:58N 51°54' E 004°22'0 0.0
2018-Feb-17 15:28N 51°54' E 004°22'0 0.0
2018-Feb-17 14:58N 51°54' E 004°22'0 0.0
2018-Feb-17 14:28N 51°54' E 004°22'0 0.0
2018-Feb-17 13:58N 51°54' E 004°22'0 1.0
2018-Feb-17 13:30N 51°54' E 004°21'3 6.4
2018-Feb-17 13:00N 51°54' E 004°16'4 8.5
2018-Feb-17 12:30N 51°57' E 004°11'4 8.2
2018-Feb-17 12:00N 51°59' E 004°05'4 8.9
2018-Feb-17 11:30N 51°60' E 003°58'1 2.5
2018-Feb-17 11:00N 52°00' E 003°56'4 7.1
2018-Feb-17 10:30N 51°60' E 004°02'5 9.9
2018-Feb-17 10:00N 51°57' E 004°09'2 2.9
2018-Feb-17 09:14N 51°56' E 004°12'0 0.0
2018-Feb-17 08:56N 51°56' E 004°12'0 0.0
2018-Feb-17 08:29N 51°56' E 004°12'0 0.0
2018-Feb-17 07:59N 51°56' E 004°12'0 0.0
2018-Feb-17 07:14N 51°56' E 004°12'0 0.0
2018-Feb-17 06:56N 51°56' E 004°12'0 0.0
2018-Feb-17 06:17N 51°56' E 004°12'0 0.0
2018-Feb-17 05:53N 51°56' E 004°12'0 0.0
2018-Feb-17 05:11N 51°56' E 004°12'0 0.0
2018-Feb-17 04:59N 51°56' E 004°12'0 0.0
2018-Feb-17 04:17N 51°56' E 004°12'0 0.0
2018-Feb-17 03:56N 51°56' E 004°12'0 0.0
2018-Feb-17 03:29N 51°56' E 004°12'0 0.0
2018-Feb-17 02:56N 51°56' E 004°12'0 0.0
2018-Feb-17 02:23N 51°56' E 004°12'0 0.0
2018-Feb-17 01:53N 51°56' E 004°12'0 0.0
2018-Feb-17 01:26N 51°56' E 004°12'0 0.0
2018-Feb-17 00:59N 51°56' E 004°12'0 0.0
2018-Feb-17 00:26N 51°56' E 004°12'0 0.0
2018-Feb-16 23:59N 51°56' E 004°12'0 0.0
2018-Feb-16 23:29N 51°56' E 004°12'0 0.0
2018-Feb-16 22:47N 51°56' E 004°12'0 0.0
2018-Feb-16 22:29N 51°56' E 004°12'0 0.0
2018-Feb-16 21:56N 51°56' E 004°12'0 0.0
2018-Feb-16 21:26N 51°56' E 004°12'0 0.0
2018-Feb-16 20:56N 51°56' E 004°12'0 0.0
2018-Feb-16 20:26N 51°56' E 004°12'0 0.0
2018-Feb-16 19:59N 51°56' E 004°12'0 0.0
2018-Feb-16 19:29N 51°56' E 004°12'0 0.0
2018-Feb-16 18:59N 51°56' E 004°12'0 0.0
2018-Feb-16 18:29N 51°56' E 004°12'0 0.0
2018-Feb-16 17:59N 51°56' E 004°12'0 0.0
2018-Feb-16 17:23N 51°56' E 004°12'0 0.0
2018-Feb-16 16:56N 51°56' E 004°12'0 0.0
2018-Feb-16 16:20N 51°56' E 004°12'0 0.0
2018-Feb-16 15:59N 51°56' E 004°12'0 0.0
2018-Feb-16 15:23N 51°56' E 004°12'0 0.0
2018-Feb-16 14:59N 51°56' E 004°12'0 0.0
2018-Feb-16 14:29N 51°56' E 004°12'0 0.0
2018-Feb-16 13:50N 51°56' E 004°12'0 0.0
2018-Feb-16 13:29N 51°56' E 004°12'0 0.0
2018-Feb-16 12:59N 51°56' E 004°12'0 0.0
2018-Feb-16 12:26N 51°56' E 004°12'0 0.0
2018-Feb-16 11:56N 51°56' E 004°12'0 0.0
2018-Feb-16 11:26N 51°56' E 004°12'0 0.0
2018-Feb-16 10:38N 51°56' E 004°12'0 0.0
2018-Feb-16 10:29N 51°56' E 004°12'0 0.0
2018-Feb-16 09:59N 51°56' E 004°12'0 0.0
2018-Feb-16 09:26N 51°56' E 004°12'0 0.0
2018-Feb-16 08:59N 51°56' E 004°12'0 0.0
2018-Feb-16 08:29N 51°56' E 004°12'0 0.0
2018-Feb-16 07:53N 51°56' E 004°12'0 0.0
2018-Feb-16 07:26N 51°56' E 004°12'0 0.0
2018-Feb-16 06:59N 51°56' E 004°12'0 0.0
2018-Feb-16 06:29N 51°56' E 004°12'0 0.0
2018-Feb-16 05:56N 51°56' E 004°12'0 0.0
2018-Feb-16 05:26N 51°56' E 004°12'0 0.0
2018-Feb-16 04:47N 51°56' E 004°12'0 0.0
2018-Feb-16 04:29N 51°56' E 004°12'0 0.0
2018-Feb-16 03:59N 51°56' E 004°12'0 0.0
2018-Feb-16 03:26N 51°56' E 004°12'0 0.0
2018-Feb-16 02:56N 51°56' E 004°12'0 0.0
2018-Feb-16 02:26N 51°56' E 004°12'0 0.0
2018-Feb-16 01:59N 51°56' E 004°12'0 0.0
2018-Feb-16 01:29N 51°56' E 004°12'0 0.0
2018-Feb-16 00:59N 51°56' E 004°12'0 0.0
2018-Feb-16 00:26N 51°56' E 004°12'0 0.0
2018-Feb-15 23:50N 51°56' E 004°12'0 0.0
2018-Feb-15 23:26N 51°56' E 004°12'0 0.0
2018-Feb-15 22:53N 51°56' E 004°12'0 0.0
2018-Feb-15 22:29N 51°56' E 004°12'0 0.0
2018-Feb-15 21:56N 51°56' E 004°12'0 0.0
2018-Feb-15 21:29N 51°56' E 004°12'0 0.0
2018-Feb-15 20:47N 51°56' E 004°12'0 0.0
2018-Feb-15 20:29N 51°56' E 004°12'0 0.0
2018-Feb-15 19:56N 51°56' E 004°12'0 0.0
2018-Feb-15 19:29N 51°56' E 004°12'0 0.0
2018-Feb-15 18:53N 51°56' E 004°12'0 0.0
2018-Feb-15 18:29N 51°56' E 004°12'0 0.0
2018-Feb-15 17:59N 51°56' E 004°12'0 0.0
2018-Feb-15 17:29N 51°56' E 004°12'0 0.0
2018-Feb-15 16:59N 51°56' E 004°12'0 0.0
2018-Feb-15 16:23N 51°56' E 004°12'0 0.0
2018-Feb-15 15:59N 51°56' E 004°12'0 0.0
2018-Feb-15 15:20N 51°56' E 004°12'0 0.0
2018-Feb-15 14:59N 51°56' E 004°12'0 0.0
2018-Feb-15 14:29N 51°56' E 004°12'0 0.0
2018-Feb-15 13:50N 51°56' E 004°12'0 0.0
2018-Feb-15 13:20N 51°56' E 004°12'0 0.0
2018-Feb-15 12:59N 51°56' E 004°12'0 0.0
2018-Feb-15 12:29N 51°56' E 004°12'0 0.0
2018-Feb-15 11:59N 51°56' E 004°12'0 0.0
2018-Feb-15 11:29N 51°56' E 004°12'0 0.0
2018-Feb-15 10:53N 51°56' E 004°12'0 0.0
2018-Feb-15 10:23N 51°56' E 004°12'0 0.0
2018-Feb-15 09:50N 51°56' E 004°12'0 0.0
2018-Feb-15 09:23N 51°56' E 004°12'0 0.0
2018-Feb-15 08:59N 51°56' E 004°12'0 0.0
2018-Feb-15 08:26N 51°56' E 004°12'0 0.0
2018-Feb-15 07:56N 51°56' E 004°12'0 0.0
2018-Feb-15 07:23N 51°56' E 004°12'0 0.0
2018-Feb-15 06:56N 51°56' E 004°12'0 0.0
2018-Feb-15 06:17N 51°56' E 004°12'0 0.0
2018-Feb-15 05:59N 51°56' E 004°12'0 0.0
2018-Feb-15 05:30N 51°56' E 004°12'0 0.0
2018-Feb-15 05:00N 51°56' E 004°12'1 1.9
2018-Feb-15 04:31N 51°56' E 004°11'4 7.9
2018-Feb-15 04:01N 51°59' E 004°05'3 6.5
2018-Feb-15 03:30N 51°60' E 004°00'5 9.4
2018-Feb-15 03:01N 52°02' E 003°53'4 8.9
2018-Feb-15 02:31N 52°00' E 003°46'4 7.8
2018-Feb-15 02:01N 51°58' E 003°41'4 8.8
2018-Feb-15 01:31N 51°57' E 003°34'2 3.1
2018-Feb-15 00:56N 51°55' E 003°34'0 0.0
2018-Feb-15 00:20N 51°55' E 003°34'0 0.0
2018-Feb-14 21:29N 51°55' E 003°34'0 0.0
2018-Feb-14 20:47N 51°55' E 003°34'0 0.1
2018-Feb-14 20:26N 51°55' E 003°34'0 0.0
2018-Feb-14 18:35N 51°55' E 003°34'0 0.2
2018-Feb-14 18:20N 51°55' E 003°34'0 0.1
2018-Feb-14 17:23N 51°55' E 003°34'0 0.1
2018-Feb-14 17:00N 51°55' E 003°34'0 0.6
2018-Feb-14 16:27N 51°55' E 003°34'11 9.5
2018-Feb-14 15:18N 51°53' E 003°16'612.9
2018-Feb-14 14:50N 51°52' E 003°07'513.1
2018-Feb-14 14:29N 51°50' E 002°60'913.2
2018-Feb-14 13:47N 51°47' E 002°45'713.8
2018-Feb-14 13:15N 51°43' E 002°36'415.2
2018-Feb-14 13:00N 51°40' E 002°32'815.3
2018-Feb-14 12:30N 51°35' E 002°22'815.7
2018-Feb-14 12:01N 51°29' E 002°15'815.5
2018-Feb-14 11:30N 51°22' E 002°09'815.4
2018-Feb-14 11:00N 51°15' E 002°05'815.7
2018-Feb-14 10:31N 51°10' E 001°55'816.0
2018-Feb-14 10:01N 51°05' E 001°45'815.9
2018-Feb-14 09:31N 51°00' E 001°35'815.2
2018-Feb-14 09:01N 50°54' E 001°28'815.1
2018-Feb-14 08:30N 50°47' E 001°24'714.5
2018-Feb-14 08:00N 50°40' E 001°20'1913.5
2018-Feb-14 06:37N 50°29' E 000°56'413.4
2018-Feb-14 06:18N 50°28' E 000°50'913.5
2018-Feb-14 05:37N 50°25' E 000°36'213.4
2018-Feb-14 05:29N 50°25' E 000°33'613.2
2018-Feb-14 05:00N 50°23' E 000°24'712.7
2018-Feb-14 04:25N 50°21' E 000°12'512.4
2018-Feb-14 04:00N 50°20' E 000°04'612.4
2018-Feb-14 03:30N 50°18' W 000°05'612.1
2018-Feb-14 03:00N 50°16' W 000°14'3211.2
2018-Feb-14 00:10N 50°07' W 001°02'211.2
2018-Feb-14 00:00N 50°07' W 001°04'611.4
2018-Feb-13 23:31N 50°05' W 001°13'611.9
2018-Feb-13 23:00N 50°04' W 001°22'612.5
2018-Feb-13 22:30N 50°02' W 001°31'613.0
2018-Feb-13 22:01N 50°00' W 001°41'713.4
2018-Feb-13 21:30N 49°59' W 001°51'713.9
2018-Feb-13 21:00N 49°57' W 002°02'714.3
2018-Feb-13 20:30N 49°55' W 002°13'2214.3
2018-Feb-13 18:57N 49°50' W 002°46'914.0
2018-Feb-13 18:16N 49°47' W 003°00'413.8
2018-Feb-13 18:00N 49°46' W 003°06'813.7
2018-Feb-13 17:24N 49°45' W 003°18'913.3
2018-Feb-13 16:43N 49°45' W 003°32'313.2
2018-Feb-13 16:30N 49°46' W 003°36'713.6
2018-Feb-13 16:00N 49°46' W 003°47'1513.3
2018-Feb-13 14:54N 49°47' W 004°10'713.0
2018-Feb-13 14:20N 49°48' W 004°21'613.0
2018-Feb-13 13:53N 49°49' W 004°30'512.3
2018-Feb-13 13:30N 49°49' W 004°37'911.6
2018-Feb-13 12:42N 49°53' W 004°50'212.4
2018-Feb-13 12:30N 49°55' W 004°53'611.0
2018-Feb-13 11:57N 49°59' W 005°01'0 0.5
2018-Feb-13 11:23N 49°59' W 005°00'0 0.1
2018-Feb-13 10:59N 49°59' W 005°00'0 0.0
2018-Feb-13 10:29N 49°59' W 005°00'0 0.1
2018-Feb-13 09:59N 49°59' W 005°00'0 0.1
2018-Feb-13 09:29N 49°59' W 005°00'0 0.0
2018-Feb-13 08:47N 49°59' W 005°00'0 1.2
2018-Feb-13 08:28N 49°59' W 005°01'1 2.6
2018-Feb-13 08:00N 49°59' W 005°03'2 3.4
2018-Feb-13 07:30N 49°57' W 005°04'3 5.3
2018-Feb-13 07:01N 49°55' W 005°06'3 5.6
2018-Feb-13 06:31N 49°53' W 005°08'4 1.4
2018-Feb-13 03:42N 49°57' W 005°07'0 2.2
2018-Feb-13 03:30N 49°57' W 005°06'2 2.3
2018-Feb-13 02:47N 49°58' W 005°05'1 2.3
2018-Feb-13 02:30N 49°59' W 005°04'1 2.0
2018-Feb-13 01:59N 49°59' W 005°03'2 2.4
2018-Feb-13 01:13N 50°00' W 005°01'1 6.9
2018-Feb-13 01:00N 49°60' W 005°03'510.0
2018-Feb-13 00:30N 49°56' W 005°08'5 9.4
2018-Feb-12 23:57N 49°52' W 005°13'12 5.3
2018-Feb-12 21:46N 50°01' W 005°01'1 1.7
2018-Feb-12 21:25N 50°01' W 005°02'0 0.2
2018-Feb-12 20:31N 50°01' W 005°02'0 1.4
2018-Feb-12 20:28N 50°01' W 005°02'0 0.0
2018-Feb-12 19:43N 50°01' W 005°02'0 0.0
2018-Feb-12 19:19N 50°01' W 005°02'0 0.1
2018-Feb-12 18:58N 50°01' W 005°02'0 0.2
2018-Feb-12 18:28N 50°01' W 005°02'0 0.1
2018-Feb-12 17:49N 50°01' W 005°02'0 0.0
2018-Feb-12 16:43N 50°01' W 005°02'0 0.0
2018-Feb-12 12:10N 50°01' W 005°02'0 0.2
2018-Feb-12 11:31N 50°01' W 005°02'0 0.5
2018-Feb-12 11:25N 50°01' W 005°02'0 0.2
2018-Feb-12 10:49N 50°01' W 005°02'0 0.2
2018-Feb-12 10:28N 50°01' W 005°02'0 0.1
2018-Feb-12 09:40N 50°01' W 005°02'0 0.3
2018-Feb-12 09:19N 50°00' W 005°02'0 0.0
2018-Feb-12 08:04N 50°00' W 005°02'0 0.0
2018-Feb-12 07:55N 50°01' W 005°02'0 0.0
2018-Feb-12 07:25N 50°00' W 005°02'0 0.0
2018-Feb-12 06:40N 50°00' W 005°02'0 0.0
2018-Feb-12 06:13N 50°00' W 005°02'0 0.1
2018-Feb-12 05:52N 50°00' W 005°02'0 0.1
2018-Feb-12 05:25N 50°00' W 005°02'0 0.0
2018-Feb-12 04:55N 50°00' W 005°02'0 0.0
2018-Feb-12 04:28N 50°00' W 005°02'0 0.0
2018-Feb-12 03:49N 50°01' W 005°02'0 0.0
2018-Feb-12 03:19N 50°01' W 005°02'0 0.0
2018-Feb-12 02:58N 50°00' W 005°02'0 0.0
2018-Feb-12 02:13N 50°01' W 005°02'0 0.0
2018-Feb-12 01:58N 50°01' W 005°02'0 0.1
2018-Feb-12 01:28N 50°00' W 005°02'0 0.0
2018-Feb-12 00:58N 50°00' W 005°02'0 0.0
2018-Feb-12 00:22N 50°00' W 005°02'0 0.1
2018-Feb-11 23:58N 50°00' W 005°02'0 0.1
2018-Feb-11 23:19N 50°00' W 005°02'0 0.1
2018-Feb-11 22:52N 50°01' W 005°02'0 0.1
2018-Feb-11 22:28N 50°00' W 005°02'0 0.0
2018-Feb-11 21:55N 50°00' W 005°02'0 0.1
2018-Feb-11 21:28N 50°00' W 005°02'0 0.0
2018-Feb-11 20:49N 50°00' W 005°02'0 0.1
2018-Feb-11 20:19N 50°00' W 005°02'0 0.0
2018-Feb-11 19:58N 50°00' W 005°02'0 0.0
2018-Feb-11 19:22N 50°00' W 005°02'0 0.0
2018-Feb-11 18:43N 50°00' W 005°02'0 0.0
2018-Feb-11 18:28N 50°00' W 005°02'0 0.1
2018-Feb-11 17:58N 50°00' W 005°02'0 0.1
2018-Feb-11 17:19N 50°00' W 005°02'0 0.2
2018-Feb-11 16:58N 50°00' W 005°02'0 0.0
2018-Feb-11 15:04N 50°00' W 005°02'0 0.0
2018-Feb-11 14:16N 50°00' W 005°02'0 0.0
2018-Feb-11 13:40N 50°00' W 005°02'0 0.2
2018-Feb-11 13:25N 50°01' W 005°02'0 0.0
2018-Feb-11 10:58N 50°00' W 005°02'0 0.1
2018-Feb-11 10:25N 50°00' W 005°02'0 0.0
2018-Feb-11 09:22N 50°01' W 005°02'0 0.1
2018-Feb-11 08:52N 50°00' W 005°02'0 0.2
2018-Feb-11 08:22N 50°00' W 005°02'0 0.2
2018-Feb-11 07:55N 50°00' W 005°02'0 0.1
2018-Feb-11 07:19N 50°01' W 005°02'0 0.0
2018-Feb-11 06:37N 50°00' W 005°02'0 0.2
2018-Feb-11 06:25N 50°01' W 005°02'0 0.0
2018-Feb-11 05:58N 50°01' W 005°02'0 0.1
2018-Feb-11 05:19N 50°00' W 005°02'0 0.2
2018-Feb-11 04:46N 50°01' W 005°02'0 0.1
2018-Feb-11 04:28N 50°01' W 005°02'0 0.0
2018-Feb-11 03:55N 50°01' W 005°02'0 0.0
2018-Feb-11 03:19N 50°01' W 005°02'0 0.0
2018-Feb-11 02:58N 50°01' W 005°02'0 0.1
2018-Feb-11 02:22N 50°01' W 005°02'0 0.0
2018-Feb-11 01:43N 50°01' W 005°02'0 0.1
2018-Feb-11 01:28N 50°00' W 005°02'0 0.1
2018-Feb-11 00:40N 50°01' W 005°02'0 0.4
2018-Feb-11 00:28N 50°00' W 005°02'0 0.1
2018-Feb-10 23:55N 50°01' W 005°02'0 0.1
2018-Feb-10 23:25N 50°00' W 005°02'0 0.0
2018-Feb-10 22:52N 50°00' W 005°02'0 0.1
2018-Feb-10 22:13N 50°01' W 005°02'0 0.1
2018-Feb-10 21:28N 50°01' W 005°02'0 0.1
2018-Feb-10 20:49N 50°01' W 005°02'0 0.1
2018-Feb-10 20:25N 50°01' W 005°02'0 0.0
2018-Feb-10 19:46N 50°01' W 005°02'0 0.1
2018-Feb-10 19:25N 50°01' W 005°02'0 0.0
2018-Feb-10 18:43N 50°01' W 005°02'0 0.2
2018-Feb-10 18:25N 50°01' W 005°02'0 0.1
2018-Feb-10 17:49N 50°01' W 005°02'0 0.0
2018-Feb-10 17:25N 50°01' W 005°02'0 0.1
2018-Feb-10 16:52N 50°01' W 005°02'0 0.1
2018-Feb-10 16:28N 50°01' W 005°02'0 0.0
2018-Feb-10 15:04N 50°01' W 005°02'0 0.1
2018-Feb-10 14:46N 50°01' W 005°02'0 0.0
2018-Feb-10 14:25N 50°01' W 005°02'0 0.0
2018-Feb-10 13:49N 50°01' W 005°02'0 0.1
2018-Feb-10 13:28N 50°01' W 005°02'0 0.1
2018-Feb-10 12:52N 50°01' W 005°02'0 0.2
2018-Feb-10 12:28N 50°01' W 005°02'0 0.1
2018-Feb-10 11:55N 50°01' W 005°02'0 0.2
2018-Feb-10 11:25N 50°00' W 005°02'0 0.3
2018-Feb-10 10:58N 50°01' W 005°02'0 0.2
2018-Feb-10 10:28N 50°00' W 005°02'0 0.2
2018-Feb-10 09:58N 50°01' W 005°02'0 0.2
2018-Feb-10 09:28N 50°00' W 005°02'0 0.0
2018-Feb-10 08:46N 50°00' W 005°02'0 0.0
2018-Feb-10 08:25N 50°00' W 005°02'0 0.1
2018-Feb-10 07:49N 50°00' W 005°02'0 0.0
2018-Feb-10 07:25N 50°00' W 005°02'0 0.1
2018-Feb-10 06:49N 50°00' W 005°02'0 0.0
2018-Feb-10 06:25N 50°00' W 005°02'0 0.1
2018-Feb-10 05:55N 50°00' W 005°02'0 0.1
2018-Feb-10 05:25N 50°00' W 005°02'0 0.0
2018-Feb-10 04:58N 50°00' W 005°02'0 0.0
2018-Feb-10 04:28N 50°00' W 005°02'0 0.0
2018-Feb-10 03:58N 50°00' W 005°02'0 0.0
2018-Feb-10 03:13N 50°00' W 005°02'0 0.0
2018-Feb-10 02:49N 50°00' W 005°02'0 0.1
2018-Feb-10 02:19N 50°00' W 005°02'0 0.1
2018-Feb-10 01:55N 50°00' W 005°02'0 0.1
2018-Feb-10 01:28N 50°00' W 005°02'0 0.0
2018-Feb-09 23:55N 50°00' W 005°02'0 0.0
2018-Feb-09 23:19N 50°00' W 005°02'0 0.0
2018-Feb-09 21:49N 50°00' W 005°02'  

Dump ship's entire track history